createdAt,value
2023-05-19T00:00:50.890Z,1.90
2023-05-19T00:03:39.374Z,3.90
2023-05-19T00:06:30.902Z,3.70
2023-05-19T00:09:11.831Z,3.40
2023-05-19T00:11:51.884Z,4.00
2023-05-19T00:14:32.890Z,3.80
2023-05-19T00:17:23.297Z,4.00
2023-05-19T00:20:24.464Z,3.40
2023-05-19T00:23:26.704Z,3.50
2023-05-19T00:26:13.230Z,3.70
2023-05-19T00:29:22.146Z,3.30
2023-05-19T00:32:15.376Z,3.10
2023-05-19T00:34:53.286Z,3.40
2023-05-19T00:37:30.043Z,3.20
2023-05-19T00:40:17.559Z,3.40
2023-05-19T00:42:56.853Z,3.30
2023-05-19T00:45:33.734Z,2.90
2023-05-19T00:48:46.642Z,3.40
2023-05-19T00:51:32.851Z,2.80
2023-05-19T00:54:31.767Z,3.60
2023-05-19T00:57:28.769Z,3.00
2023-05-19T01:00:37.223Z,2.10
2023-05-19T01:03:23.794Z,3.00
2023-05-19T01:06:31.627Z,2.80
2023-05-19T01:09:36.970Z,2.60
2023-05-19T01:12:34.515Z,2.70
2023-05-19T01:15:12.216Z,2.70
2023-05-19T01:18:26.346Z,3.20
2023-05-19T01:21:36.784Z,2.90
2023-05-19T01:25:19.323Z,3.10
2023-05-19T01:28:46.378Z,3.00
2023-05-19T01:31:57.775Z,3.30
2023-05-19T01:35:18.431Z,2.10
2023-05-19T01:38:09.620Z,2.40
2023-05-19T01:41:36.481Z,2.70
2023-05-19T01:44:19.476Z,2.80
2023-05-19T01:47:16.536Z,2.60
2023-05-19T01:50:11.145Z,3.10
2023-05-19T01:53:06.050Z,3.30
2023-05-19T01:56:03.914Z,2.30
2023-05-19T01:58:37.473Z,2.40
2023-05-19T02:01:26.336Z,3.40
2023-05-19T02:04:46.547Z,3.70
2023-05-19T02:07:48.863Z,2.60
2023-05-19T02:10:38.216Z,3.10
2023-05-19T02:13:16.265Z,3.50
2023-05-19T02:16:09.801Z,2.90
2023-05-19T02:19:08.175Z,3.20
2023-05-19T02:22:07.028Z,2.20
2023-05-19T02:25:15.208Z,3.20
2023-05-19T02:28:28.538Z,3.80
2023-05-19T02:31:09.766Z,2.50
2023-05-19T02:34:03.421Z,2.60
2023-05-19T02:36:49.452Z,2.50
2023-05-19T02:39:48.125Z,2.80
2023-05-19T02:43:16.066Z,3.30
2023-05-19T02:46:17.057Z,2.50
2023-05-19T02:49:25.617Z,4.00
2023-05-19T02:52:18.439Z,3.20
2023-05-19T02:55:03.062Z,3.70
2023-05-19T02:58:15.198Z,3.40
2023-05-19T03:01:25.018Z,2.70
2023-05-19T03:04:51.237Z,3.00
2023-05-19T03:07:49.923Z,3.50
2023-05-19T03:10:49.958Z,3.90
2023-05-19T03:14:07.036Z,3.60
2023-05-19T03:17:10.817Z,3.70
2023-05-19T03:20:28.867Z,3.60
2023-05-19T03:23:31.248Z,3.60
2023-05-19T03:26:42.228Z,3.30
2023-05-19T03:29:33.524Z,3.20
2023-05-19T03:32:30.317Z,3.60
2023-05-19T03:35:29.968Z,3.10
2023-05-19T03:38:31.182Z,3.40
2023-05-19T03:41:42.346Z,3.10
2023-05-19T03:44:12.679Z,4.40
2023-05-19T03:47:14.689Z,3.40
2023-05-19T03:50:02.489Z,3.60
2023-05-19T03:52:51.797Z,3.70
2023-05-19T03:55:25.718Z,4.50
2023-05-19T03:58:20.410Z,3.70
2023-05-19T04:01:33.894Z,4.00
2023-05-19T04:04:38.137Z,3.10
2023-05-19T04:07:49.075Z,3.40
2023-05-19T04:11:17.125Z,3.70
2023-05-19T04:14:22.560Z,4.30
2023-05-19T04:17:21.310Z,4.10
2023-05-19T04:20:13.861Z,3.90
2023-05-19T04:22:44.873Z,3.10
2023-05-19T04:25:45.901Z,3.70
2023-05-19T04:28:42.222Z,4.20
2023-05-19T04:31:21.282Z,4.20
2023-05-19T04:34:03.428Z,3.50
2023-05-19T04:36:53.372Z,3.80
2023-05-19T04:40:00.648Z,3.30
2023-05-19T04:43:11.260Z,3.80
2023-05-19T04:46:31.353Z,4.30
2023-05-19T04:49:29.130Z,3.30
2023-05-19T04:52:31.591Z,3.00
2023-05-19T04:55:13.353Z,3.50
2023-05-19T04:58:05.941Z,3.10
2023-05-19T05:01:20.890Z,4.20
2023-05-19T05:04:15.138Z,3.40
2023-05-19T05:06:52.495Z,3.50
2023-05-19T05:09:56.138Z,4.00
2023-05-19T05:12:45.873Z,4.70
2023-05-19T05:15:46.115Z,3.60
2023-05-19T05:18:48.791Z,3.10
2023-05-19T05:21:35.477Z,3.20
2023-05-19T05:24:42.908Z,3.60
2023-05-19T05:27:19.213Z,4.80
2023-05-19T05:30:17.738Z,4.20
2023-05-19T05:32:53.758Z,3.60
2023-05-19T05:35:25.248Z,4.00
2023-05-19T05:38:01.467Z,3.80
2023-05-19T05:40:35.667Z,2.80
2023-05-19T05:43:10.862Z,3.40
2023-05-19T05:46:12.444Z,3.10
2023-05-19T05:49:16.284Z,3.90
2023-05-19T05:52:05.664Z,3.40
2023-05-19T05:54:43.038Z,4.00
2023-05-19T05:57:31.249Z,2.90
2023-05-19T06:00:05.765Z,2.80
2023-05-19T06:02:39.888Z,3.60
2023-05-19T06:05:28.756Z,4.00
2023-05-19T06:08:05.667Z,3.80
2023-05-19T06:10:46.443Z,3.70
2023-05-19T06:13:18.452Z,3.40
2023-05-19T06:15:51.893Z,3.20
2023-05-19T06:18:40.162Z,3.40
2023-05-19T06:21:14.593Z,3.20
2023-05-19T06:23:45.187Z,3.20
2023-05-19T06:26:17.912Z,3.40
2023-05-19T06:28:50.839Z,3.20
2023-05-19T06:31:43.651Z,3.00
2023-05-19T06:34:17.313Z,3.90
2023-05-19T06:37:03.749Z,3.70
2023-05-19T06:39:34.713Z,3.40
2023-05-19T06:42:05.657Z,2.80
2023-05-19T06:44:45.117Z,3.60
2023-05-19T06:47:15.346Z,3.50
2023-05-19T06:49:46.497Z,3.60
2023-05-19T06:52:14.733Z,3.60
2023-05-19T06:54:45.585Z,3.70
2023-05-19T06:57:15.675Z,3.50
2023-05-19T06:59:46.468Z,2.60
2023-05-19T07:02:14.429Z,3.10
2023-05-19T07:04:42.886Z,3.10
2023-05-19T07:07:16.043Z,3.60
2023-05-19T07:09:46.507Z,3.10
2023-05-19T07:12:26.288Z,3.40
2023-05-19T07:14:59.922Z,2.80
2023-05-19T07:17:30.451Z,3.90
2023-05-19T07:20:01.420Z,2.80
2023-05-19T07:22:38.572Z,3.30
2023-05-19T07:25:15.401Z,2.80
2023-05-19T07:27:45.849Z,2.90
2023-05-19T07:30:13.921Z,42.90
2023-05-19T07:32:41.600Z,59.50
2023-05-19T07:35:09.385Z,39.50
2023-05-19T07:37:36.940Z,24.20
2023-05-19T07:40:07.689Z,54.10
2023-05-19T07:42:35.493Z,27.20
2023-05-19T07:45:03.389Z,17.70
2023-05-19T07:47:31.396Z,9.70
2023-05-19T07:49:59.539Z,4.50
2023-05-19T07:52:32.557Z,3.50
2023-05-19T07:55:00.216Z,3.50
2023-05-19T07:57:28.391Z,2.60
2023-05-19T07:59:56.238Z,3.20
2023-05-19T08:02:24.179Z,3.00
2023-05-19T08:04:52.975Z,3.60
2023-05-19T08:07:21.008Z,3.40
2023-05-19T08:09:48.731Z,3.30
2023-05-19T08:12:16.555Z,3.50
2023-05-19T08:14:44.198Z,3.20
2023-05-19T08:17:12.142Z,2.80
2023-05-19T08:19:39.816Z,3.40
2023-05-19T08:22:10.226Z,3.30
2023-05-19T08:24:42.860Z,3.60
2023-05-19T08:27:10.610Z,3.00
2023-05-19T08:29:38.893Z,2.70
2023-05-19T08:32:17.863Z,3.00
2023-05-19T08:34:45.364Z,2.80
2023-05-19T08:37:13.176Z,4.90
2023-05-19T08:39:40.901Z,3.10
2023-05-19T08:42:09.844Z,2.70
2023-05-19T08:44:39.777Z,3.30
2023-05-19T08:47:12.551Z,2.70
2023-05-19T08:49:52.647Z,3.50
2023-05-19T08:52:32.920Z,2.90
2023-05-19T08:55:17.067Z,2.70
2023-05-19T08:57:47.700Z,2.60
2023-05-19T09:00:18.167Z,3.10
2023-05-19T09:02:55.452Z,2.70
2023-05-19T09:05:34.904Z,2.20
2023-05-19T09:08:04.621Z,2.90
2023-05-19T09:10:35.485Z,2.60
2023-05-19T09:13:05.119Z,2.20
2023-05-19T09:15:34.550Z,2.60
2023-05-19T09:18:17.001Z,2.70
2023-05-19T09:20:46.091Z,3.00
2023-05-19T09:23:18.055Z,3.70
2023-05-19T09:25:53.093Z,2.90
2023-05-19T09:28:25.892Z,3.40
2023-05-19T09:31:04.602Z,3.70
2023-05-19T09:33:36.873Z,3.30
2023-05-19T09:36:07.922Z,3.40
2023-05-19T09:38:36.637Z,3.40
2023-05-19T09:41:05.950Z,3.90
2023-05-19T09:43:36.212Z,3.00
2023-05-19T09:46:14.668Z,2.90
2023-05-19T09:48:45.829Z,3.60
2023-05-19T09:51:13.381Z,2.50
2023-05-19T09:53:45.107Z,7.20
2023-05-19T09:56:14.896Z,3.20
2023-05-19T09:58:42.524Z,16.40
2023-05-19T10:01:13.231Z,6.00
2023-05-19T10:03:42.450Z,18.50
2023-05-19T10:06:11.341Z,38.80
2023-05-19T10:08:42.329Z,8.90
2023-05-19T10:11:15.327Z,13.50
2023-05-19T10:13:46.969Z,4.90
2023-05-19T10:16:16.683Z,6.20
2023-05-19T10:18:44.480Z,3.20
2023-05-19T10:21:13.972Z,6.90
2023-05-19T10:23:44.647Z,3.30
2023-05-19T10:26:13.658Z,3.90
2023-05-19T10:28:45.618Z,3.70
2023-05-19T10:31:19.472Z,8.00
2023-05-19T10:34:19.017Z,13.20
2023-05-19T10:36:50.557Z,10.40
2023-05-19T10:39:28.836Z,7.10
2023-05-19T10:42:04.843Z,3.90
2023-05-19T10:45:19.857Z,3.30
2023-05-19T10:47:47.751Z,3.40
2023-05-19T10:50:17.130Z,3.00
2023-05-19T10:52:52.544Z,4.40
2023-05-19T10:55:49.071Z,3.80
2023-05-19T10:58:39.948Z,9.50
2023-05-19T11:01:16.918Z,4.60
2023-05-19T11:03:48.797Z,3.40
2023-05-19T11:06:29.839Z,3.20
2023-05-19T11:09:12.146Z,3.60
2023-05-19T11:11:53.809Z,3.50
2023-05-19T11:14:23.827Z,3.10
2023-05-19T11:16:53.258Z,3.60
2023-05-19T11:19:41.761Z,3.10
2023-05-19T11:22:22.718Z,3.10
2023-05-19T11:24:52.156Z,2.90
2023-05-19T11:27:46.356Z,3.50
2023-05-19T11:30:19.626Z,2.90
2023-05-19T11:32:58.736Z,2.80
2023-05-19T11:35:27.547Z,2.90
2023-05-19T11:37:56.218Z,3.30
2023-05-19T11:43:10.721Z,2.20
2023-05-19T11:45:57.377Z,3.00
2023-05-19T11:48:26.658Z,2.50
2023-05-19T11:50:56.483Z,2.30
2023-05-19T11:53:24.097Z,2.50
2023-05-19T11:55:52.218Z,3.60
2023-05-19T11:58:28.223Z,3.50
2023-05-19T12:00:56.502Z,3.00
2023-05-19T12:03:28.318Z,3.40
2023-05-19T12:05:56.695Z,2.60
2023-05-19T12:08:25.262Z,3.10
2023-05-19T12:11:11.178Z,2.90
2023-05-19T12:18:55.416Z,3.10
2023-05-19T12:22:01.697Z,2.60
2023-05-19T12:24:30.863Z,2.70
2023-05-19T12:27:13.340Z,3.00
2023-05-19T12:29:41.100Z,2.80
2023-05-19T12:32:45.826Z,2.50
2023-05-19T12:35:15.127Z,3.40
2023-05-19T12:37:42.924Z,3.20
2023-05-19T12:40:16.637Z,3.30
2023-05-19T12:45:52.137Z,3.20
2023-05-19T12:51:09.963Z,3.40
2023-05-19T12:53:38.385Z,3.10
2023-05-19T12:56:14.135Z,4.00
2023-05-19T13:01:56.207Z,3.70
2023-05-19T13:04:42.390Z,3.00
2023-05-19T13:07:10.050Z,3.20
2023-05-19T13:09:38.428Z,3.40
2023-05-19T13:12:06.247Z,3.80
2023-05-19T13:14:33.969Z,2.80
2023-05-19T13:17:01.597Z,2.80
2023-05-19T13:19:29.404Z,3.00
2023-05-19T13:21:57.167Z,3.70
2023-05-19T13:24:25.030Z,2.80
2023-05-19T13:29:39.362Z,3.20
2023-05-19T13:32:08.448Z,3.60
2023-05-19T13:34:54.254Z,3.90
2023-05-19T13:37:22.483Z,3.50
2023-05-19T13:39:50.309Z,3.30
2023-05-19T13:42:17.929Z,3.00
2023-05-19T13:44:46.205Z,2.90
2023-05-19T13:47:13.929Z,2.90
2023-05-19T13:49:41.991Z,3.00
2023-05-19T13:52:09.610Z,3.60
2023-05-19T13:54:37.195Z,3.10
2023-05-19T13:57:06.157Z,3.60
2023-05-19T14:00:01.860Z,3.20
2023-05-19T14:02:30.405Z,3.00
2023-05-19T14:05:17.290Z,2.90
2023-05-19T14:07:44.923Z,3.10
2023-05-19T14:10:31.611Z,3.40
2023-05-19T14:18:22.881Z,3.30
2023-05-19T14:21:09.398Z,2.90
2023-05-19T14:23:37.094Z,3.40
2023-05-19T14:26:05.305Z,3.00
2023-05-19T14:28:51.208Z,3.90
2023-05-19T14:31:19.048Z,3.30
2023-05-19T14:33:47.020Z,3.40
2023-05-19T14:36:14.977Z,2.90
2023-05-19T14:38:42.676Z,3.10
2023-05-19T14:41:10.357Z,3.00
2023-05-19T14:43:37.944Z,2.40
2023-05-19T14:46:05.926Z,2.50
2023-05-19T14:48:33.730Z,2.50
2023-05-19T14:51:38.817Z,2.40
2023-05-19T14:54:06.485Z,2.70
2023-05-19T14:56:53.090Z,2.90
2023-05-19T14:59:21.637Z,2.90
2023-05-19T15:02:13.262Z,3.40
2023-05-19T15:04:41.061Z,3.50
2023-05-19T15:07:29.875Z,3.20
2023-05-19T15:09:58.877Z,3.60
2023-05-19T15:15:12.655Z,3.10
2023-05-19T15:17:43.051Z,2.70
2023-05-19T15:20:11.501Z,2.70
2023-05-19T15:22:39.236Z,2.90
2023-05-19T15:25:25.942Z,2.80
2023-05-19T15:27:53.453Z,2.80
2023-05-19T15:30:39.711Z,2.90
2023-05-19T15:33:07.340Z,3.70
2023-05-19T15:35:34.917Z,2.80
2023-05-19T15:38:06.062Z,2.60
2023-05-19T15:40:34.032Z,2.90
2023-05-19T15:43:19.924Z,2.80
2023-05-19T15:45:48.045Z,2.70
2023-05-19T15:48:34.454Z,2.70
2023-05-19T15:51:02.159Z,2.90
2023-05-19T15:53:29.793Z,2.60
2023-05-19T15:55:57.499Z,2.50
2023-05-19T15:58:25.066Z,2.70
2023-05-19T16:00:52.723Z,2.80
2023-05-19T16:03:22.179Z,2.90
2023-05-19T16:06:07.841Z,2.80
2023-05-19T16:08:35.307Z,2.40
2023-05-19T16:14:08.553Z,2.40
2023-05-19T16:16:36.956Z,2.50
2023-05-19T16:19:05.017Z,2.40
2023-05-19T16:24:21.147Z,2.20
2023-05-19T16:26:48.753Z,2.70
2023-05-19T16:29:16.240Z,2.10
2023-05-19T16:31:43.919Z,2.30
2023-05-19T16:34:30.656Z,2.60
2023-05-19T16:37:01.175Z,2.40
2023-05-19T16:39:28.965Z,2.10
2023-05-19T16:41:56.567Z,2.60
2023-05-19T16:44:25.607Z,2.10
2023-05-19T16:46:53.551Z,2.10
2023-05-19T16:49:33.667Z,2.30
2023-05-19T16:55:06.871Z,2.00
2023-05-19T16:57:34.597Z,2.00
2023-05-19T17:00:03.659Z,2.30
2023-05-19T17:02:31.411Z,3.00
2023-05-19T17:05:01.910Z,2.20
2023-05-19T17:07:29.568Z,2.70
2023-05-19T17:10:16.255Z,2.30
2023-05-19T17:12:44.053Z,2.20
2023-05-19T17:15:12.004Z,2.50
2023-05-19T17:17:58.112Z,2.40
2023-05-19T17:23:11.597Z,2.30
2023-05-19T17:30:55.279Z,2.50
2023-05-19T17:33:59.823Z,2.70
2023-05-19T17:39:56.052Z,2.50
2023-05-19T17:45:19.329Z,2.50
2023-05-19T17:47:47.336Z,2.40
2023-05-19T17:50:15.773Z,2.60
2023-05-19T17:52:46.200Z,3.00
2023-05-19T17:55:18.933Z,3.00
2023-05-19T17:57:47.979Z,3.10
2023-05-19T18:00:19.656Z,2.50
2023-05-19T18:02:47.961Z,2.60
2023-05-19T18:08:12.870Z,2.80
2023-05-19T18:10:42.602Z,2.60
2023-05-19T18:13:26.071Z,2.60
2023-05-19T18:15:57.525Z,2.50
2023-05-19T18:18:37.154Z,2.60
2023-05-19T18:21:05.212Z,3.60
2023-05-19T18:23:58.983Z,3.10
2023-05-19T18:26:29.138Z,2.70
2023-05-19T18:31:50.068Z,3.40
2023-05-19T18:34:21.052Z,2.80
2023-05-19T18:36:48.818Z,2.90
2023-05-19T18:39:18.886Z,2.90
2023-05-19T18:41:47.313Z,2.40
2023-05-19T18:44:20.111Z,2.60
2023-05-19T18:46:53.284Z,2.60
2023-05-19T18:49:26.801Z,2.50
2023-05-19T18:51:57.744Z,3.20
2023-05-19T18:54:45.933Z,2.80
2023-05-19T18:57:16.785Z,3.20
2023-05-19T18:59:47.318Z,2.70
2023-05-19T19:02:15.305Z,2.60
2023-05-19T19:04:46.088Z,2.40
2023-05-19T19:07:19.568Z,2.30
2023-05-19T19:10:09.572Z,3.00
2023-05-19T19:12:41.151Z,2.20
2023-05-19T19:18:28.992Z,2.60
2023-05-19T19:21:31.475Z,2.70
2023-05-19T19:24:02.485Z,1.90
2023-05-19T19:26:30.690Z,2.80
2023-05-19T19:29:16.312Z,2.60
2023-05-19T19:32:09.422Z,3.30
2023-05-19T19:35:03.288Z,2.80
2023-05-19T19:37:46.558Z,2.40
2023-05-19T19:40:25.546Z,3.00
2023-05-19T19:43:02.545Z,2.40
2023-05-19T19:46:19.656Z,3.20
2023-05-19T19:48:58.936Z,3.60
2023-05-19T19:52:25.740Z,3.10
2023-05-19T19:55:15.081Z,2.60
2023-05-19T19:57:51.658Z,3.50
2023-05-19T20:01:09.438Z,2.80
2023-05-19T20:03:59.763Z,2.70
2023-05-19T20:06:58.266Z,2.80
2023-05-19T20:09:58.225Z,3.30
2023-05-19T20:13:06.679Z,3.00
2023-05-19T20:15:39.043Z,2.70
2023-05-19T20:18:28.527Z,2.80
2023-05-19T20:21:06.688Z,3.10
2023-05-19T20:23:38.628Z,3.00
2023-05-19T20:26:12.981Z,2.60
2023-05-19T20:29:02.918Z,2.60
2023-05-19T20:31:39.514Z,2.90
2023-05-19T20:34:15.884Z,3.20
2023-05-19T20:36:54.804Z,3.10
2023-05-19T20:40:10.863Z,2.90
2023-05-19T20:42:42.556Z,2.70
2023-05-19T20:45:15.039Z,3.00
2023-05-19T20:51:15.400Z,2.90
2023-05-19T20:56:39.914Z,2.50
2023-05-19T20:59:20.762Z,3.60
2023-05-19T21:01:54.148Z,3.60
2023-05-19T21:07:35.319Z,2.80
2023-05-19T21:10:32.494Z,4.00
2023-05-19T21:13:31.515Z,3.10
2023-05-19T21:16:13.817Z,2.50
2023-05-19T21:19:21.386Z,3.80
2023-05-19T21:21:52.590Z,3.30
2023-05-19T21:24:44.550Z,3.40
2023-05-19T21:27:19.971Z,3.40
2023-05-19T21:30:23.267Z,2.90
2023-05-19T21:41:35.193Z,3.60
2023-05-19T21:44:28.932Z,3.70
2023-05-19T21:46:59.194Z,2.80
2023-05-19T21:49:30.732Z,3.30
2023-05-19T21:52:07.743Z,3.50
2023-05-19T21:54:57.597Z,3.90
2023-05-19T21:57:42.252Z,3.50
2023-05-19T22:00:34.394Z,3.40
2023-05-19T22:03:16.329Z,3.30
2023-05-19T22:06:34.073Z,3.70
2023-05-19T22:09:21.462Z,3.00
2023-05-19T22:15:48.008Z,4.30
2023-05-19T22:18:40.383Z,3.30
2023-05-19T22:21:27.852Z,3.60
2023-05-19T22:24:04.507Z,4.70
2023-05-19T22:27:11.689Z,3.70
2023-05-19T22:33:31.307Z,3.70
2023-05-19T22:36:29.169Z,2.70
2023-05-19T22:39:20.855Z,3.30
2023-05-19T22:42:18.093Z,2.90
2023-05-19T22:45:17.144Z,3.80
2023-05-19T22:54:42.011Z,2.40
2023-05-19T22:57:54.416Z,2.90
2023-05-19T23:01:03.206Z,2.70
2023-05-19T23:04:24.251Z,3.00
2023-05-19T23:07:20.849Z,2.10
2023-05-19T23:10:45.645Z,2.40
2023-05-19T23:13:47.787Z,3.70
2023-05-19T23:23:06.933Z,2.40
2023-05-19T23:26:12.803Z,2.80
2023-05-19T23:28:52.184Z,2.50
2023-05-19T23:31:59.151Z,2.40
2023-05-19T23:34:56.445Z,2.40
2023-05-19T23:41:05.165Z,1.80
2023-05-19T23:43:59.684Z,2.00
2023-05-19T23:46:30.445Z,2.00
2023-05-19T23:49:40.842Z,1.70
2023-05-19T23:52:25.391Z,2.20
2023-05-19T23:55:12.205Z,1.70
